METAR Data
IDs: Format: Raw Decoded Include TAF

Data at: 0907 UTC 26 Jan 2020

KMKE 260852Z 28009KT 10SM OVC010 02/M01 A2986 RMK AO2 SNE15 SLP119 P0000 60000 T00171011 53001 $
KMKE 260752Z 27006KT 9SM -SN OVC011 02/M01 A2986 RMK AO2 SNB04 SLP118 P0000 T00171006 $
KMKE 260715Z 28007KT 9SM -SN OVC010 02/M01 A2985 RMK AO2 SNB04 P0000 T00171006
KMKE 260652Z 28006KT 10SM OVC009 02/M01 A2985 RMK AO2 SLP117 T00221006
KMKE 260552Z 27008G14KT 10SM OVC008 02/M01 A2986 RMK AO2 SLP118 4/004 60000 T00221006 10022 20017 400220006 53006
KMKE 260452Z 28006KT 10SM OVC008 02/M01 A2984 RMK AO2 SNE13 SLP114 P0000 T00221006
KMKE 260448Z 28008KT 10SM OVC008 02/M01 A2984 RMK AO2 SNE13 P0000
KMKE 260352Z 28006KT 10SM -SN OVC010 02/M01 A2984 RMK AO2 SNB51 SLP112 P0000 T00221006
KMKE 260252Z 28005KT 10SM OVC011 02/M01 A2984 RMK AO2 SLP111 T00221006 51005
KMKE 260152Z 28005KT 10SM OVC009 02/M01 A2984 RMK AO2 SLP111 T00171006
KMKE 260052Z 29006KT 10SM OVC011 02/M01 A2983 RMK AO2 SLP108 T00171011
KMKE 252352Z 29006KT 10SM OVC012 02/M01 A2982 RMK AO2 SLP106 4/004 T00171011 10022 20017 53014
KMKE 252252Z 29006KT 10SM OVC013 02/M01 A2981 RMK AO2 SLP101 T00171011
KMKE 252152Z 30010KT 10SM BKN012 OVC030 02/M01 A2979 RMK AO2 SLP096 T00221011
KMKE 252052Z 30007KT 10SM BKN015 OVC030 02/M01 A2978 RMK AO2 SLP091 T00221011 55000
KMKE 252010Z 30010KT 10SM BKN016 OVC026 02/M01 A2978 RMK AO2 T00221011
KMKE 251952Z 29008KT 10SM FEW010 OVC014 02/M01 A2977 RMK AO2 SLP089 T00221011
KMKE 251852Z 29009KT 10SM FEW009 BKN014 OVC021 02/M01 A2977 RMK AO2 SLP090 T00221011
KMKE 251752Z 30006KT 7SM BKN007 BKN013 OVC033 02/M01 A2978 RMK AO2 SNE46 SLP091 4/004 933010 P0001 60004 T00171006 10017 20011 50003
KMKE 251734Z 28006KT 4SM -SN BR BKN007 BKN013 OVC050 02/00 A2978 RMK AO2 P0001 T00170000
KMKE 251652Z 29005KT 2SM -SN BR BKN006 OVC028 01/M01 A2979 RMK AO2 SLP095 P0001 T00111006
KMKE 251552Z 29005KT 1 1/2SM -SN BR FEW006 BKN026 OVC035 01/M01 A2978 RMK AO2 SLP091 P0002 T00111006
KMKE 251452Z 28005KT 1 1/4SM -SN BR SCT006 OVC028 01/M01 A2977 RMK AO2 SLP088 P0000 60000 T00111006 51008
KMKE 251408Z 29004KT 3SM -SN BR FEW007 BKN026 OVC033 01/M01 A2977 RMK AO2 P0000 T00111006
KMKE 251352Z 29004KT 2 1/2SM -SN BR SCT006 SCT012 OVC026 01/M01 A2977 RMK AO2 TWR VIS 3 SNB12 SLP087 P0000 T00111006
KMKE 251333Z 28004KT 2SM -SN BR BKN006 BKN012 OVC021 01/M01 A2976 RMK AO2 TWR VIS 3 SNB12 P0000 T00111006
KMKE 251252Z 27005KT 7SM BKN006 OVC012 01/M01 A2975 RMK AO2 SLP083 T00111006
KMKE 251152Z 29004KT 5SM BR SCT008 OVC023 01/M01 A2974 RMK AO2 SLP079 4/004 60000 70030 T00111006 10011 20006 53000
KMKE 251150Z 28005KT 5SM BR SCT008 OVC023 01/M01 A2974 RMK AO2 4/004
KMKE 251052Z 29003KT 1 1/2SM BR OVC006 01/M01 A2973 RMK AO2 SFC VIS 4 SLP075 T00111006
KMKE 250952Z 27004KT 1 1/2SM BR OVC004 01/M01 A2973 RMK AO2 SFC VIS 3 SLP075 T00111006
KMKE 250852Z 28004KT 1 1/2SM BR OVC004 01/M01 A2974 RMK AO2 SFC VIS 2 1/2 SLP079 60000 T00111006 58003
KMKE 250752Z 00000KT 1 1/2SM BR OVC003 01/00 A2975 RMK AO2 SFC VIS 2 1/2 SLP081 T00110000
KMKE 250652Z 00000KT 1 1/2SM BR OVC003 01/00 A2975 RMK AO2 SFC VIS 2 1/2 SNE51 SLP080 P0000 T00110000
KMKE 250607Z 31003KT 1 1/2SM -SN BR OVC004 01/M01 A2975 RMK AO2 SFC VIS 2 1/2 P0000 T00061006
KMKE 250552Z 32004KT 1SM R01L/P6000FT -SN BR OVC003 01/M01 A2975 RMK AO2 SFC VIS 2 1/2 SLP081 4/004 P0002 60015 T00061006 10011 20006 400280006 56010
KMKE 250523Z 32004KT 1SM R01L/P6000FT -SN BR BKN003 OVC021 01/M01 A2975 RMK AO2 SFC VIS 2 P0002 T00061006
KMKE 250452Z COR 32003KT 1/2SM R01L/P6000FT -SN BR OVC003 01/M01 A2976 RMK AO2 SFC VIS 1 1/4 SLP083 SNINCR 1/4 P0004 T00061006
KMKE 250352Z 33004KT 1/2SM R01L/P6000FT -SN BR OVC003 01/M01 A2977 RMK AO2 SFC VIS 1 3/4 SLP087 P0004 T00061006
KMKE 250259Z 33004KT 1/2SM R01L/P6000FT -SN BR BKN003 OVC009 01/M01 A2978 RMK AO2 SFC VIS 2 1/2 P0000 T00061006
KMKE 250252Z 34003KT 1/2SM R01L/P6000FT -SN BR SCT003 OVC009 01/M01 A2978 RMK AO2 SFC VIS 2 SLP092 P0003 60005 T00061006 58005
KMKE 250152Z 36003KT 1/2SM R01L/P6000FT -SN BR OVC002 01/M01 A2979 RMK AO2 SFC VIS 2 1/2 SLP096 P0001 T00111006
KMKE 250052Z 36003KT 1/2SM R01L/P6000FT -SN BR OVC002 01/00 A2980 RMK AO2 SFC VIS 2 1/2 SLP099 P0001 T00110000
KMKE 242352Z 01003KT 1/2SM R01L/P6000FT -SN BR OVC002 01/M01 A2980 RMK AO2 SFC VIS 2 SLP097 4/003 P0003 60012 T00111006 10028 20011 56002
KMKE 242324Z 02004KT 3/4SM R01L/P6000FT -SN BR OVC003 01/00 A2980 RMK AO2 SFC VIS 2 P0002 T00110000
KMKE 242306Z 04006KT 1 1/2SM -SN BR OVC004 01/M01 A2980 RMK AO2 SFC VIS 2 1/2 P0001 T00111006
KMKE 242252Z 04005KT 2SM -SN BR OVC004 01/00 A2980 RMK AO2 SFC VIS 2 1/2 RAE40SNB08 SLP098 P0006 T00110000
KMKE 242208Z 09009KT 2SM -RASN BR SCT004 OVC008 02/01 A2980 RMK AO2 SFC VIS 6 SNB08 P0002 T00220006
KMKE 242152Z 09008KT 2SM -RA BR BKN004 OVC010 02/01 A2980 RMK AO2 SFC VIS 3 DZE18RAB18 SLP098 P0002 T00220011
KMKE 242144Z 08008KT 2SM -RA BR BKN004 OVC010 02/01 A2980 RMK AO2 SFC VIS 3 DZE18RAB18 P0002 T00220011
KMKE 242121Z 08006KT 1SM R01L/5500VP6000FT -RA BR BKN002 OVC010 03/02 A2980 RMK AO2 SFC VIS 1 3/4 DZE18RAB18 P0000 T00280017